createdAt,value
2023-04-30T00:02:01.374Z,101633.00
2023-04-30T00:04:27.945Z,101629.25
2023-04-30T00:06:54.387Z,101631.06
2023-04-30T00:09:20.789Z,101622.88
2023-04-30T00:11:47.362Z,101624.38
2023-04-30T00:14:15.707Z,101629.84
2023-04-30T00:16:42.090Z,101628.06
2023-04-30T00:19:09.273Z,101629.53
2023-04-30T00:21:37.262Z,101630.22
2023-04-30T00:24:04.162Z,101630.06
2023-04-30T00:26:30.579Z,101630.28
2023-04-30T00:28:57.038Z,101632.44
2023-04-30T00:31:23.478Z,101639.03
2023-04-30T00:33:50.756Z,101641.19
2023-04-30T00:36:17.058Z,101636.63
2023-04-30T00:38:43.493Z,101643.22
2023-04-30T00:41:11.581Z,101651.75
2023-04-30T00:43:39.587Z,101647.66
2023-04-30T00:46:06.769Z,101641.91
2023-04-30T00:48:36.099Z,101640.13
2023-04-30T00:51:04.136Z,101641.97
2023-04-30T00:53:31.792Z,101645.41
2023-04-30T00:55:59.178Z,101641.28
2023-04-30T00:58:26.668Z,101642.81
2023-04-30T01:00:53.361Z,101643.44
2023-04-30T01:03:20.492Z,101644.13
2023-04-30T01:05:46.951Z,101646.41
2023-04-30T01:08:13.627Z,101643.16
2023-04-30T01:10:56.338Z,101647.75
2023-04-30T01:13:27.284Z,101646.25
2023-04-30T01:16:03.947Z,101642.50
2023-04-30T01:19:09.522Z,101648.38
2023-04-30T01:21:41.460Z,101635.25
2023-04-30T01:24:14.113Z,101641.50
2023-04-30T01:26:59.069Z,101638.38
2023-04-30T01:29:27.313Z,101645.75
2023-04-30T01:31:53.704Z,101648.06
2023-04-30T01:34:20.174Z,101635.47
2023-04-30T01:37:05.182Z,101640.38
2023-04-30T01:39:56.650Z,101640.72
2023-04-30T01:42:33.486Z,101641.69
2023-04-30T01:45:28.718Z,101647.78
2023-04-30T01:48:27.974Z,101657.59
2023-04-30T01:51:22.155Z,101656.66
2023-04-30T01:53:49.226Z,101655.50
2023-04-30T01:56:25.882Z,101660.09
2023-04-30T01:58:53.586Z,101660.41
2023-04-30T02:01:27.710Z,101665.47
2023-04-30T02:03:54.622Z,101667.44
2023-04-30T02:06:21.416Z,101657.78
2023-04-30T02:08:49.256Z,101657.28
2023-04-30T02:11:16.238Z,101656.81
2023-04-30T02:13:42.846Z,101660.56
2023-04-30T02:16:09.460Z,101660.41
2023-04-30T02:18:36.434Z,101665.50
2023-04-30T02:21:02.778Z,101664.50
2023-04-30T02:23:29.462Z,101658.75
2023-04-30T02:25:55.806Z,101660.53
2023-04-30T02:28:22.261Z,101657.09
2023-04-30T02:30:48.670Z,101664.63
2023-04-30T02:33:15.061Z,101666.09
2023-04-30T02:35:41.684Z,101666.75
2023-04-30T02:38:08.053Z,101668.22
2023-04-30T02:40:34.400Z,101662.16
2023-04-30T02:43:01.467Z,101663.31
2023-04-30T02:45:27.851Z,101666.41
2023-04-30T02:47:54.545Z,101669.50
2023-04-30T02:50:20.941Z,101669.03
2023-04-30T02:52:47.335Z,101674.91
2023-04-30T02:55:13.784Z,101669.66
2023-04-30T02:57:40.513Z,101664.44
2023-04-30T03:00:07.718Z,101661.13
2023-04-30T03:02:34.257Z,101669.81
2023-04-30T03:05:00.692Z,101666.84
2023-04-30T03:07:27.077Z,101671.13
2023-04-30T03:09:53.755Z,101670.59
2023-04-30T03:12:20.387Z,101672.06
2023-04-30T03:14:46.806Z,101665.16
2023-04-30T03:17:13.439Z,101672.19
2023-04-30T03:19:39.839Z,101674.47
2023-04-30T03:22:06.208Z,101668.41
2023-04-30T03:24:32.585Z,101669.56
2023-04-30T03:26:59.324Z,101664.28
2023-04-30T03:29:25.645Z,101666.59
2023-04-30T03:31:52.628Z,101675.56
2023-04-30T03:34:19.184Z,101673.13
2023-04-30T03:36:45.496Z,101677.06
2023-04-30T03:39:12.212Z,101673.75
2023-04-30T03:41:38.595Z,101669.31
2023-04-30T03:44:05.508Z,101672.44
2023-04-30T03:46:31.942Z,101673.56
2023-04-30T03:48:58.349Z,101673.88
2023-04-30T03:51:24.782Z,101675.38
2023-04-30T03:53:51.432Z,101672.06
2023-04-30T03:56:17.783Z,101667.66
2023-04-30T03:58:44.385Z,101662.41
2023-04-30T04:01:10.993Z,101674.34
2023-04-30T04:03:37.571Z,101673.03
2023-04-30T04:06:05.485Z,101671.06
2023-04-30T04:08:32.814Z,101673.03
2023-04-30T04:10:59.857Z,101667.78
2023-04-30T04:13:26.212Z,101675.81
2023-04-30T04:15:52.861Z,101673.84
2023-04-30T04:18:19.350Z,101667.47
2023-04-30T04:20:45.938Z,101673.22
2023-04-30T04:23:12.412Z,101674.03
2023-04-30T04:25:39.386Z,101677.00
2023-04-30T04:28:05.939Z,101677.81
2023-04-30T04:30:32.334Z,101682.75
2023-04-30T04:32:58.968Z,101684.88
2023-04-30T04:35:25.750Z,101696.53
2023-04-30T04:37:52.338Z,101695.06
2023-04-30T04:40:19.018Z,101689.19
2023-04-30T04:42:45.400Z,101688.84
2023-04-30T04:45:12.144Z,101692.94
2023-04-30T04:47:38.921Z,101686.25
2023-04-30T04:50:06.790Z,101693.94
2023-04-30T04:52:33.345Z,101698.88
2023-04-30T04:54:59.705Z,101700.19
2023-04-30T04:57:26.403Z,101703.50
2023-04-30T04:59:53.294Z,101708.75
2023-04-30T05:02:20.141Z,101697.28
2023-04-30T05:04:47.283Z,101700.94
2023-04-30T05:07:13.679Z,101697.81
2023-04-30T05:09:40.060Z,101710.91
2023-04-30T05:12:06.802Z,101705.66
2023-04-30T05:14:33.198Z,101712.06
2023-04-30T05:16:59.589Z,101702.56
2023-04-30T05:19:26.115Z,101703.88
2023-04-30T05:21:52.692Z,101704.06
2023-04-30T05:24:19.455Z,101700.63
2023-04-30T05:26:46.087Z,101705.53
2023-04-30T05:29:12.531Z,101710.16
2023-04-30T05:31:40.156Z,101715.56
2023-04-30T05:34:06.590Z,101703.78
2023-04-30T05:36:32.941Z,101713.16
2023-04-30T05:38:59.393Z,101709.69
2023-04-30T05:41:25.863Z,101709.06
2023-04-30T05:43:52.239Z,101715.13
2023-04-30T05:46:18.806Z,101715.97
2023-04-30T05:48:45.515Z,101718.09
2023-04-30T05:51:11.823Z,101718.59
2023-04-30T05:53:38.425Z,101717.94
2023-04-30T05:56:04.901Z,101719.56
2023-04-30T05:58:31.313Z,101721.72
2023-04-30T06:00:59.177Z,101723.34
2023-04-30T06:03:25.730Z,101729.59
2023-04-30T06:05:52.443Z,101723.69
2023-04-30T06:08:19.093Z,101725.81
2023-04-30T06:10:45.633Z,101724.03
2023-04-30T06:13:12.285Z,101733.06
2023-04-30T06:15:38.889Z,101731.25
2023-04-30T06:18:05.573Z,101733.06
2023-04-30T06:20:32.306Z,101725.69
2023-04-30T06:22:59.939Z,101716.34
2023-04-30T06:25:26.452Z,101721.75
2023-04-30T06:27:54.204Z,101725.53
2023-04-30T06:30:21.188Z,101724.88
2023-04-30T06:32:47.606Z,101719.47
2023-04-30T06:35:14.369Z,101721.25
2023-04-30T06:37:40.925Z,101728.31
2023-04-30T06:40:08.040Z,101725.03
2023-04-30T06:42:35.249Z,101722.28
2023-04-30T06:45:02.658Z,101727.69
2023-04-30T06:47:34.450Z,101727.16
2023-04-30T06:50:01.539Z,101719.13
2023-04-30T06:52:28.502Z,101721.06
2023-04-30T06:54:54.883Z,101722.19
2023-04-30T06:57:21.471Z,101729.72
2023-04-30T06:59:48.218Z,101729.22
2023-04-30T07:02:14.974Z,101725.59
2023-04-30T07:04:41.346Z,101726.22
2023-04-30T07:07:07.919Z,101712.53
2023-04-30T07:09:34.212Z,101714.47
2023-04-30T07:12:01.080Z,101719.69
2023-04-30T07:14:27.664Z,101711.25
2023-04-30T07:16:54.243Z,101726.34
2023-04-30T07:19:20.870Z,101722.72
2023-04-30T07:21:47.487Z,101720.69
2023-04-30T07:24:13.841Z,101718.16
2023-04-30T07:26:40.284Z,101715.78
2023-04-30T07:29:06.665Z,101710.97
2023-04-30T07:31:34.114Z,101712.66
2023-04-30T07:34:00.614Z,101714.69
2023-04-30T07:36:28.652Z,101720.03
2023-04-30T07:38:55.054Z,101719.38
2023-04-30T07:41:21.811Z,101718.41
2023-04-30T07:43:48.202Z,101723.34
2023-04-30T07:46:14.684Z,101726.63
2023-04-30T07:48:41.186Z,101722.34
2023-04-30T07:51:07.560Z,101716.88
2023-04-30T07:53:34.088Z,101711.84
2023-04-30T07:56:00.963Z,101718.03
2023-04-30T07:58:27.334Z,101708.22
2023-04-30T08:00:53.893Z,101709.91
2023-04-30T08:03:20.475Z,101707.91
2023-04-30T08:05:47.351Z,101711.50
2023-04-30T08:08:13.712Z,101704.56
2023-04-30T08:10:42.054Z,101714.53
2023-04-30T08:13:08.429Z,101712.16
2023-04-30T08:15:34.817Z,101710.56
2023-04-30T08:18:02.588Z,101713.31
2023-04-30T08:20:29.383Z,101715.59
2023-04-30T08:22:55.974Z,101709.41
2023-04-30T08:25:22.531Z,101714.97
2023-04-30T08:27:48.915Z,101708.78
2023-04-30T08:30:15.358Z,101713.88
2023-04-30T08:32:41.954Z,101717.66
2023-04-30T08:35:09.216Z,101715.06
2023-04-30T08:37:35.738Z,101710.38
2023-04-30T08:40:02.401Z,101716.09
2023-04-30T08:42:35.175Z,101715.75
2023-04-30T08:45:03.264Z,101712.66
2023-04-30T08:47:30.498Z,101717.19
2023-04-30T08:49:56.997Z,101709.63
2023-04-30T08:52:25.163Z,101726.22
2023-04-30T08:54:54.124Z,101716.22
2023-04-30T08:57:20.779Z,101710.22
2023-04-30T08:59:47.729Z,101714.22
2023-04-30T09:02:14.457Z,101716.63
2023-04-30T09:04:40.907Z,101716.53
2023-04-30T09:07:09.462Z,101714.44
2023-04-30T09:09:39.287Z,101720.34
2023-04-30T09:12:18.870Z,101718.72
2023-04-30T09:15:02.502Z,101718.28
2023-04-30T09:17:30.249Z,101714.72
2023-04-30T09:20:10.910Z,101722.25
2023-04-30T09:22:39.475Z,101719.16
2023-04-30T09:25:07.215Z,101710.72
2023-04-30T09:27:33.682Z,101708.75
2023-04-30T09:30:01.104Z,101707.03
2023-04-30T09:32:27.582Z,101710.56
2023-04-30T09:34:55.190Z,101703.22
2023-04-30T09:37:21.608Z,101706.75
2023-04-30T09:39:55.248Z,101698.59
2023-04-30T09:42:22.338Z,101704.59
2023-04-30T09:44:48.984Z,101691.72
2023-04-30T09:47:20.870Z,101697.69
2023-04-30T09:49:48.366Z,101697.34
2023-04-30T09:52:16.117Z,101698.97
2023-04-30T09:54:44.108Z,101701.41
2023-04-30T09:57:13.463Z,101694.97
2023-04-30T09:59:44.086Z,101702.22
2023-04-30T10:02:13.471Z,101698.59
2023-04-30T10:04:44.544Z,101698.97
2023-04-30T10:07:11.617Z,101689.00
2023-04-30T10:09:43.227Z,101684.53
2023-04-30T10:12:20.598Z,101683.81
2023-04-30T10:14:55.545Z,101677.00
2023-04-30T10:17:26.898Z,101680.72
2023-04-30T10:20:01.199Z,101669.53
2023-04-30T10:22:29.036Z,101662.06
2023-04-30T10:24:55.832Z,101659.75
2023-04-30T10:27:22.349Z,101662.75
2023-04-30T10:29:52.194Z,101665.72
2023-04-30T10:32:20.341Z,101661.44
2023-04-30T10:35:35.370Z,101663.56
2023-04-30T10:38:12.899Z,101657.22
2023-04-30T10:40:39.564Z,101651.72
2023-04-30T10:43:06.664Z,101654.97
2023-04-30T10:45:38.140Z,101652.59
2023-04-30T10:48:07.493Z,101651.47
2023-04-30T10:50:40.766Z,101637.47
2023-04-30T10:53:12.347Z,101649.63
2023-04-30T10:55:59.733Z,101631.88
2023-04-30T10:58:34.764Z,101629.63
2023-04-30T11:01:15.939Z,101630.88
2023-04-30T11:03:43.875Z,101632.56
2023-04-30T11:06:15.068Z,101627.38
2023-04-30T11:08:46.181Z,101623.38
2023-04-30T11:11:20.954Z,101624.63
2023-04-30T11:13:57.797Z,101619.47
2023-04-30T11:16:30.781Z,101620.38
2023-04-30T11:19:13.205Z,101623.66
2023-04-30T11:22:04.413Z,101618.03
2023-04-30T11:24:58.864Z,101613.28
2023-04-30T11:27:30.460Z,101607.34
2023-04-30T11:29:59.233Z,101613.03
2023-04-30T11:32:33.852Z,101602.16
2023-04-30T11:35:05.152Z,101603.84
2023-04-30T11:37:36.484Z,101597.00
2023-04-30T11:40:08.754Z,101592.19
2023-04-30T11:42:35.255Z,101595.06
2023-04-30T11:45:10.165Z,101590.22
2023-04-30T11:47:50.422Z,101598.75
2023-04-30T11:50:27.553Z,101587.91
2023-04-30T11:52:54.913Z,101582.75
2023-04-30T11:55:24.412Z,101586.38
2023-04-30T11:57:54.550Z,101581.19
2023-04-30T12:00:31.670Z,101575.56
2023-04-30T12:03:01.285Z,101574.03
2023-04-30T12:05:28.409Z,101576.09
2023-04-30T12:08:01.142Z,101571.25
2023-04-30T12:10:27.536Z,101569.75
2023-04-30T12:12:54.811Z,101569.03
2023-04-30T12:15:26.721Z,101573.47
2023-04-30T12:17:57.814Z,101579.53
2023-04-30T12:20:26.384Z,101563.84
2023-04-30T12:22:52.601Z,101557.88
2023-04-30T12:25:21.272Z,101558.78
2023-04-30T12:27:49.482Z,101558.41
2023-04-30T12:30:20.141Z,101561.66
2023-04-30T12:32:50.430Z,101562.50
2023-04-30T12:35:19.020Z,101549.28
2023-04-30T12:37:46.099Z,101555.38
2023-04-30T12:40:14.484Z,101550.22
2023-04-30T12:42:44.101Z,101545.38
2023-04-30T12:45:11.355Z,101547.00
2023-04-30T12:47:42.368Z,101547.84
2023-04-30T12:50:15.055Z,101538.53
2023-04-30T12:52:41.447Z,101536.56
2023-04-30T12:55:21.194Z,101534.13
2023-04-30T12:58:09.237Z,101538.19
2023-04-30T13:00:49.832Z,101535.03
2023-04-30T13:03:19.173Z,101525.03
2023-04-30T13:05:50.873Z,101526.25
2023-04-30T13:08:18.806Z,101525.53
2023-04-30T13:10:46.858Z,101523.16
2023-04-30T13:13:15.536Z,101516.38
2023-04-30T13:15:45.301Z,101517.59
2023-04-30T13:18:12.219Z,101514.41
2023-04-30T13:20:39.192Z,101512.78
2023-04-30T13:23:06.622Z,101510.34
2023-04-30T13:25:34.087Z,101504.28
2023-04-30T13:28:00.584Z,101503.94
2023-04-30T13:30:27.198Z,101502.31
2023-04-30T13:32:54.320Z,101505.59
2023-04-30T13:35:20.825Z,101499.53
2023-04-30T13:37:52.356Z,101504.78
2023-04-30T13:40:19.620Z,101504.44
2023-04-30T13:42:47.624Z,101500.41
2023-04-30T13:45:14.174Z,101502.44
2023-04-30T13:47:41.017Z,101494.38
2023-04-30T13:50:08.838Z,101484.69
2023-04-30T13:52:35.248Z,101489.16
2023-04-30T13:55:02.259Z,101483.50
2023-04-30T13:57:29.972Z,101476.22
2023-04-30T13:59:57.091Z,101482.31
2023-04-30T14:02:23.999Z,101480.66
2023-04-30T14:05:04.645Z,101473.00
2023-04-30T14:07:32.864Z,101474.25
2023-04-30T14:09:59.771Z,101474.25
2023-04-30T14:12:26.265Z,101469.41
2023-04-30T14:14:52.913Z,101463.75
2023-04-30T14:17:19.533Z,101467.03
2023-04-30T14:19:46.104Z,101464.59
2023-04-30T14:22:12.542Z,101463.00
2023-04-30T14:24:38.973Z,101451.31
2023-04-30T14:27:06.039Z,101448.91
2023-04-30T14:29:32.629Z,101452.97
2023-04-30T14:31:59.061Z,101451.78
2023-04-30T14:34:25.855Z,101445.34
2023-04-30T14:36:52.338Z,101450.22
2023-04-30T14:39:18.671Z,101443.38
2023-04-30T14:41:45.128Z,101440.59
2023-04-30T14:44:11.717Z,101435.75
2023-04-30T14:46:38.300Z,101440.59
2023-04-30T14:49:04.849Z,101442.25
2023-04-30T14:51:32.417Z,101441.44
2023-04-30T14:53:59.369Z,101432.19
2023-04-30T14:56:25.834Z,101428.94
2023-04-30T14:58:52.190Z,101433.00
2023-04-30T15:01:18.884Z,101416.06
2023-04-30T15:03:46.082Z,101417.66
2023-04-30T15:06:13.919Z,101420.50
2023-04-30T15:08:40.833Z,101415.25
2023-04-30T15:11:09.681Z,101413.22
2023-04-30T15:13:39.854Z,101409.16
2023-04-30T15:16:07.009Z,101418.44
2023-04-30T15:18:33.933Z,101409.97
2023-04-30T15:21:00.812Z,101406.31
2023-04-30T15:23:27.374Z,101404.72
2023-04-30T15:25:53.797Z,101404.31
2023-04-30T15:28:20.761Z,101405.53
2023-04-30T15:30:47.081Z,101401.47
2023-04-30T15:33:13.751Z,101396.63
2023-04-30T15:35:40.640Z,101401.09
2023-04-30T15:38:07.150Z,101408.38
2023-04-30T15:40:33.924Z,101393.81
2023-04-30T15:43:00.455Z,101394.59
2023-04-30T15:45:27.970Z,101389.38
2023-04-30T15:47:54.406Z,101388.16
2023-04-30T15:50:22.289Z,101382.94
2023-04-30T15:52:48.703Z,101388.97
2023-04-30T15:55:15.074Z,101372.81
2023-04-30T15:57:41.404Z,101377.69
2023-04-30T16:00:08.970Z,101372.03
2023-04-30T16:02:36.033Z,101370.00
2023-04-30T16:05:02.515Z,101367.97
2023-04-30T16:07:31.766Z,101365.16
2023-04-30T16:09:59.997Z,101367.97
2023-04-30T16:12:26.990Z,101360.75
2023-04-30T16:14:53.912Z,101364.78
2023-04-30T16:17:21.225Z,101361.94
2023-04-30T16:19:47.552Z,101358.69
2023-04-30T16:22:14.246Z,101355.47
2023-04-30T16:24:41.249Z,101356.25
2023-04-30T16:27:08.336Z,101349.38
2023-04-30T16:29:34.713Z,101347.75
2023-04-30T16:32:01.188Z,101348.16
2023-04-30T16:34:27.848Z,101338.06
2023-04-30T16:36:54.196Z,101348.56
2023-04-30T16:39:20.540Z,101339.28
2023-04-30T16:41:47.435Z,101336.84
2023-04-30T16:44:13.773Z,101329.56
2023-04-30T16:46:40.488Z,101323.91
2023-04-30T16:49:07.000Z,101325.13
2023-04-30T16:51:33.678Z,101325.94
2023-04-30T16:54:00.001Z,101319.84
2023-04-30T16:56:26.543Z,101321.88
2023-04-30T16:58:52.929Z,101317.03
2023-04-30T17:01:19.619Z,101316.59
2023-04-30T17:03:46.675Z,101311.75
2023-04-30T17:06:14.229Z,101310.09
2023-04-30T17:08:41.111Z,101310.47
2023-04-30T17:11:07.828Z,101312.91
2023-04-30T17:13:34.257Z,101314.50
2023-04-30T17:16:02.011Z,101306.41
2023-04-30T17:18:28.486Z,101306.81
2023-04-30T17:20:55.095Z,101311.66
2023-04-30T17:23:21.657Z,101295.09
2023-04-30T17:25:48.006Z,101291.88
2023-04-30T17:28:14.302Z,101294.69
2023-04-30T17:30:41.915Z,101295.91
2023-04-30T17:33:08.625Z,101298.28
2023-04-30T17:35:35.116Z,101298.69
2023-04-30T17:38:03.867Z,101296.66
2023-04-30T17:40:31.615Z,101299.06
2023-04-30T17:42:58.195Z,101300.28
2023-04-30T17:45:26.676Z,101299.03
2023-04-30T17:47:53.236Z,101299.44
2023-04-30T17:50:19.626Z,101292.56
2023-04-30T17:52:46.874Z,101287.72
2023-04-30T17:55:13.921Z,101288.50
2023-04-30T17:57:40.520Z,101284.81
2023-04-30T18:00:08.143Z,101290.06
2023-04-30T18:02:34.626Z,101288.84
2023-04-30T18:05:01.102Z,101286.78
2023-04-30T18:07:27.742Z,101288.38
2023-04-30T18:09:54.824Z,101299.63
2023-04-30T18:12:21.560Z,101293.16
2023-04-30T18:14:48.265Z,101289.88
2023-04-30T18:17:15.442Z,101288.63
2023-04-30T18:19:46.326Z,101295.84
2023-04-30T18:22:12.807Z,101286.94
2023-04-30T18:24:39.560Z,101287.66
2023-04-30T18:27:06.906Z,101289.22
2023-04-30T18:29:33.428Z,101287.97
2023-04-30T18:31:59.923Z,101289.16
2023-04-30T18:34:28.206Z,101293.13
2023-04-30T18:36:55.167Z,101289.47
2023-04-30T18:39:22.494Z,101295.88
2023-04-30T18:41:49.428Z,101290.59
2023-04-30T18:44:16.638Z,101279.66
2023-04-30T18:46:43.082Z,101288.06
2023-04-30T18:49:09.644Z,101285.59
2023-04-30T18:51:36.033Z,101284.75
2023-04-30T18:54:02.725Z,101292.34
2023-04-30T18:56:29.226Z,101279.81
2023-04-30T18:58:55.883Z,101280.16
2023-04-30T19:01:24.600Z,101286.50
2023-04-30T19:03:51.245Z,101286.47
2023-04-30T19:06:18.091Z,101283.63
2023-04-30T19:08:46.502Z,101283.16
2023-04-30T19:11:14.019Z,101279.91
2023-04-30T19:13:41.926Z,101279.84
2023-04-30T19:16:08.536Z,101272.53
2023-04-30T19:18:35.124Z,101284.59
2023-04-30T19:21:02.438Z,101282.53
2023-04-30T19:23:32.385Z,101287.69
2023-04-30T19:26:00.200Z,101287.66
2023-04-30T19:28:26.755Z,101284.81
2023-04-30T19:30:54.522Z,101282.28
2023-04-30T19:33:22.310Z,101283.88
2023-04-30T19:35:50.324Z,101290.25
2023-04-30T19:38:17.264Z,101284.19
2023-04-30T19:40:52.026Z,101284.53
2023-04-30T19:43:19.470Z,101298.16
2023-04-30T19:45:54.192Z,101297.69
2023-04-30T19:48:21.958Z,101294.44
2023-04-30T19:50:49.581Z,101285.53
2023-04-30T19:53:17.148Z,101300.41
2023-04-30T19:55:43.911Z,101291.50
2023-04-30T19:58:10.616Z,101288.66
2023-04-30T20:00:38.483Z,101290.22
2023-04-30T20:03:05.356Z,101283.34
2023-04-30T20:05:32.245Z,101286.91
2023-04-30T20:07:59.586Z,101289.66
2023-04-30T20:10:26.020Z,101279.53
2023-04-30T20:12:53.420Z,101289.56
2023-04-30T20:15:21.569Z,101284.69
2023-04-30T20:17:51.827Z,101281.00
2023-04-30T20:20:19.989Z,101281.31
2023-04-30T20:22:50.206Z,101278.44
2023-04-30T20:25:16.821Z,101285.22
2023-04-30T20:27:43.846Z,101276.28
2023-04-30T20:30:12.233Z,101274.16
2023-04-30T20:32:39.900Z,101286.97
2023-04-30T20:35:07.628Z,101288.91
2023-04-30T20:37:34.774Z,101281.59
2023-04-30T20:40:01.683Z,101281.53
2023-04-30T20:42:28.035Z,101286.69
2023-04-30T20:44:55.205Z,101284.19
2023-04-30T20:47:22.569Z,101276.53
2023-04-30T20:49:48.972Z,101283.69
2023-04-30T20:52:15.389Z,101277.19
2023-04-30T20:54:41.936Z,101273.13
2023-04-30T20:57:08.883Z,101274.69
2023-04-30T20:59:36.029Z,101271.03
2023-04-30T21:02:04.400Z,101273.75
2023-04-30T21:04:31.199Z,101272.50
2023-04-30T21:06:57.653Z,101267.25
2023-04-30T21:09:23.976Z,101268.81
2023-04-30T21:11:50.367Z,101266.75
2023-04-30T21:14:17.739Z,101259.06
2023-04-30T21:16:44.896Z,101267.06
2023-04-30T21:19:11.425Z,101259.75
2023-04-30T21:21:37.782Z,101272.53
2023-04-30T21:24:05.119Z,101268.84
2023-04-30T21:26:31.755Z,101271.59
2023-04-30T21:28:58.107Z,101261.91
2023-04-30T21:31:25.506Z,101266.28
2023-04-30T21:33:52.117Z,101262.19
2023-04-30T21:36:18.874Z,101259.78
2023-04-30T21:38:45.264Z,101254.88
2023-04-30T21:41:16.135Z,101260.41
2023-04-30T21:43:43.560Z,101265.22
2023-04-30T21:46:11.165Z,101255.91
2023-04-30T21:48:38.359Z,101255.03
2023-04-30T21:51:12.614Z,101252.84
2023-04-30T21:53:39.434Z,101253.25
2023-04-30T21:56:08.315Z,101253.53
2023-04-30T21:58:35.616Z,101252.63
2023-04-30T22:01:04.241Z,101244.50
2023-04-30T22:03:34.884Z,101248.81
2023-04-30T22:06:01.545Z,101230.69
2023-04-30T22:08:28.221Z,101233.78
2023-04-30T22:11:00.121Z,101233.66
2023-04-30T22:13:29.552Z,101226.31
2023-04-30T22:15:56.762Z,101227.03
2023-04-30T22:18:24.294Z,101229.34
2023-04-30T22:20:53.140Z,101227.25
2023-04-30T22:23:21.169Z,101221.94
2023-04-30T22:25:48.249Z,101216.22
2023-04-30T22:28:19.287Z,101218.59
2023-04-30T22:30:46.347Z,101215.25
2023-04-30T22:33:12.789Z,101205.94
2023-04-30T22:35:39.272Z,101207.03
2023-04-30T22:38:07.162Z,101199.72
2023-04-30T22:40:35.192Z,101201.16
2023-04-30T22:43:02.228Z,101203.06
2023-04-30T22:45:30.205Z,101210.13
2023-04-30T22:47:59.480Z,101203.63
2023-04-30T22:50:27.267Z,101191.50
2023-04-30T22:52:54.478Z,101203.44
2023-04-30T22:55:20.944Z,101197.75
2023-04-30T22:57:47.517Z,101201.28
2023-04-30T23:00:14.412Z,101202.00
2023-04-30T23:02:40.816Z,101193.16
2023-04-30T23:05:08.007Z,101189.09
2023-04-30T23:07:34.363Z,101187.81
2023-04-30T23:10:01.016Z,101191.00
2023-04-30T23:12:27.770Z,101185.72
2023-04-30T23:14:54.271Z,101193.31
2023-04-30T23:17:20.904Z,101190.53
2023-04-30T23:19:47.531Z,101189.72
2023-04-30T23:22:13.886Z,101182.50
2023-04-30T23:24:41.329Z,101183.66
2023-04-30T23:27:08.306Z,101188.47
2023-04-30T23:29:36.519Z,101188.00
2023-04-30T23:32:04.283Z,101178.34
2023-04-30T23:34:30.853Z,101181.47
2023-04-30T23:36:57.719Z,101173.81
2023-04-30T23:39:24.722Z,101174.91
2023-04-30T23:41:53.624Z,101171.91
2023-04-30T23:44:20.845Z,101166.56
2023-04-30T23:46:48.053Z,101166.03
2023-04-30T23:49:16.429Z,101163.13
2023-04-30T23:51:42.869Z,101157.88
2023-04-30T23:54:09.297Z,101161.41
2023-04-30T23:56:37.417Z,101151.38
2023-04-30T23:59:04.007Z,101152.56
